Time;durP1;ratioP1;P1;durP2;ratioP2;P2;SDS_P1;SDS_P2;PMS_P1;PMS_P2;Temp;Humidity;BMP_temperature;BMP_pressure;BME280_temperature;BME280_humidity;BME280_pressure;Samples;Min_cycle;Max_cycle;Signal;HPM_P1;HPM_P2
2022/11/07 00:01:21;;;;;;;8.60;4.55;;;10.70;99.90;;;;;;5013221;28;20365;-68
2022/11/07 00:03:47;;;;;;;6.55;4.47;;;10.70;99.90;;;;;;5010707;28;20491;-67
2022/11/07 00:06:13;;;;;;;8.88;4.80;;;10.70;99.90;;;;;;5010008;28;20053;-68
2022/11/07 00:08:38;;;;;;;10.52;4.38;;;10.70;99.90;;;;;;5009926;28;20129;-68
2022/11/07 00:11:04;;;;;;;8.48;4.57;;;10.70;99.90;;;;;;5012193;28;20037;-68
2022/11/07 00:13:30;;;;;;;10.60;4.63;;;10.70;99.90;;;;;;5010076;28;20049;-67
2022/11/07 00:16:08;;;;;;;9.07;4.82;;;10.80;99.90;;;;;;5011373;28;20052;-67
2022/11/07 00:18:34;;;;;;;6.55;4.95;;;10.80;99.90;;;;;;5007132;28;20044;-68
2022/11/07 00:21:07;;;;;;;9.30;4.28;;;10.90;99.90;;;;;;5010422;28;20026;-68
2022/11/07 00:23:33;;;;;;;8.43;4.70;;;10.90;99.90;;;;;;5010461;28;20554;-68
2022/11/07 00:26:07;;;;;;;10.88;4.65;;;10.90;99.90;;;;;;5007929;28;20034;-68
2022/11/07 00:28:34;;;;;;;9.20;4.43;;;11.00;99.90;;;;;;5010140;28;20037;-67
2022/11/07 00:31:00;;;;;;;9.10;4.40;;;11.00;99.90;;;;;;5006647;28;20430;-68
2022/11/07 00:33:26;;;;;;;14.02;4.70;;;11.00;99.90;;;;;;5008979;28;20104;-67
2022/11/07 00:35:51;;;;;;;9.80;5.13;;;11.10;99.90;;;;;;5013067;28;20055;-67
2022/11/07 00:38:17;;;;;;;9.43;4.20;;;11.10;99.90;;;;;;5013067;28;20052;-67
2022/11/07 00:40:52;;;;;;;5.95;4.28;;;11.10;99.90;;;;;;5005758;28;20038;-67
2022/11/07 00:43:17;;;;;;;12.30;4.93;;;11.20;99.90;;;;;;5009298;28;20041;-68
2022/11/07 00:45:43;;;;;;;7.53;4.00;;;11.20;99.90;;;;;;5010720;28;20037;-68
2022/11/07 00:48:08;;;;;;;7.75;3.63;;;11.20;99.90;;;;;;5034892;28;20030;-68
2022/11/07 00:50:34;;;;;;;6.10;3.83;;;11.20;99.90;;;;;;5029153;28;20095;-68
2022/11/07 00:52:59;;;;;;;8.13;4.40;;;11.20;99.90;;;;;;5037173;28;20086;-68
2022/11/07 00:55:25;;;;;;;8.65;4.10;;;11.20;99.90;;;;;;5034758;28;20124;-67
2022/11/07 00:57:50;;;;;;;9.18;3.90;;;11.20;99.90;;;;;;5033871;28;20033;-67
2022/11/07 01:00:16;;;;;;;9.40;4.03;;;11.20;99.90;;;;;;5030961;28;20045;-67
2022/11/07 01:02:42;;;;;;;7.80;4.50;;;11.20;99.90;;;;;;5031744;28;20479;-67
2022/11/07 01:05:11;;;;;;;8.38;4.57;;;11.20;99.90;;;;;;5036556;28;20375;-67
2022/11/07 01:07:38;;;;;;;8.93;4.40;;;11.10;99.90;;;;;;5045289;28;20270;-67
2022/11/07 01:10:06;;;;;;;9.75;4.65;;;11.10;99.90;;;;;;5031080;28;20047;-67
2022/11/07 01:12:33;;;;;;;8.10;3.75;;;11.10;99.90;;;;;;5016367;28;20475;-68
2022/11/07 01:14:58;;;;;;;7.85;3.83;;;11.00;99.90;;;;;;5027022;28;20112;-68
2022/11/07 01:17:24;;;;;;;10.98;4.40;;;11.00;99.90;;;;;;5028267;28;20128;-67
2022/11/07 01:19:49;;;;;;;6.78;4.22;;;11.00;99.90;;;;;;5028031;28;20041;-68
2022/11/07 01:22:15;;;;;;;8.60;4.07;;;11.00;99.90;;;;;;5029632;28;20037;-68
2022/11/07 01:24:41;;;;;;;8.45;3.88;;;10.90;99.90;;;;;;5033669;28;20107;-68
2022/11/07 01:27:07;;;;;;;11.65;4.13;;;11.00;99.90;;;;;;5027414;28;20319;-68
2022/11/07 01:29:32;;;;;;;10.10;4.20;;;11.00;99.90;;;;;;5029105;28;20099;-68
2022/11/07 01:31:58;;;;;;;8.93;4.00;;;11.00;99.90;;;;;;5035148;28;20033;-68
2022/11/07 01:34:23;;;;;;;8.13;3.83;;;11.00;99.90;;;;;;5031746;28;20122;-68
2022/11/07 01:36:49;;;;;;;9.57;3.97;;;11.00;99.90;;;;;;5030716;28;20038;-68
2022/11/07 01:39:15;;;;;;;6.50;3.35;;;11.00;99.90;;;;;;5030180;28;20871;-68
2022/11/07 01:41:41;;;;;;;14.82;4.40;;;11.00;99.90;;;;;;5024247;28;20034;-68
2022/11/07 01:44:06;;;;;;;10.27;4.20;;;11.10;99.90;;;;;;5022159;28;20064;-67
2022/11/07 01:46:37;;;;;;;11.30;3.83;;;11.10;99.90;;;;;;5025535;28;20073;-68
2022/11/07 01:49:16;;;;;;;11.85;4.00;;;11.10;99.90;;;;;;5029692;28;20537;-67
2022/11/07 01:52:00;;;;;;;10.38;3.88;;;11.20;99.90;;;;;;5030770;28;20038;-68
2022/11/07 01:54:32;;;;;;;10.57;3.90;;;11.20;99.90;;;;;;5024440;28;20041;-68
2022/11/07 01:57:02;;;;;;;7.88;3.63;;;11.30;99.90;;;;;;5025892;28;20094;-68
2022/11/07 01:59:30;;;;;;;10.98;3.72;;;11.30;99.90;;;;;;5028348;28;20052;-68
2022/11/07 02:01:56;;;;;;;8.27;3.78;;;11.30;99.90;;;;;;5029791;28;20428;-68
2022/11/07 02:04:24;;;;;;;11.00;3.88;;;11.30;99.90;;;;;;5025327;28;20136;-68
2022/11/07 02:07:01;;;;;;;12.88;4.43;;;11.30;99.90;;;;;;5029355;28;20040;-68
2022/11/07 02:09:27;;;;;;;8.63;3.80;;;11.40;99.90;;;;;;5026698;28;20099;-67
2022/11/07 02:11:53;;;;;;;11.82;3.13;;;11.40;99.90;;;;;;5025654;28;20042;-68
2022/11/07 02:14:19;;;;;;;9.02;3.42;;;11.30;99.90;;;;;;5026620;28;20064;-68
2022/11/07 02:16:45;;;;;;;8.20;4.00;;;11.40;99.90;;;;;;5029469;28;20404;-68
2022/11/07 02:19:24;;;;;;;6.07;3.10;;;11.40;99.90;;;;;;5032207;28;20120;-68
2022/11/07 02:22:10;;;;;;;8.25;4.10;;;11.40;99.90;;;;;;5030359;28;20044;-68
2022/11/07 02:24:38;;;;;;;10.65;3.88;;;11.40;99.90;;;;;;5027460;28;20065;-68
2022/11/07 02:27:10;;;;;;;6.63;3.40;;;11.40;99.90;;;;;;5032134;28;20033;-68
2022/11/07 02:29:38;;;;;;;10.25;3.28;;;11.40;99.90;;;;;;5030020;28;20041;-68
2022/11/07 02:32:09;;;;;;;11.10;4.13;;;11.40;99.90;;;;;;5032719;28;20043;-68
2022/11/07 02:34:35;;;;;;;6.55;3.90;;;11.40;99.90;;;;;;5026306;28;20088;-68
2022/11/07 02:37:05;;;;;;;7.88;3.38;;;11.40;99.90;;;;;;5034359;28;20037;-68
2022/11/07 02:39:31;;;;;;;11.43;4.63;;;11.40;99.90;;;;;;5018997;28;20128;-68
2022/11/07 02:41:59;;;;;;;9.63;4.03;;;11.40;99.90;;;;;;5033643;28;20072;-68
2022/11/07 02:44:27;;;;;;;8.43;4.15;;;11.50;99.90;;;;;;5033390;28;20045;-69
2022/11/07 02:46:53;;;;;;;10.63;4.25;;;11.40;99.90;;;;;;5034029;28;20033;-68
2022/11/07 02:49:18;;;;;;;11.00;3.90;;;11.50;99.90;;;;;;5034612;28;20175;-68
2022/11/07 02:51:44;;;;;;;11.32;3.75;;;11.40;99.90;;;;;;5033955;28;20065;-68
2022/11/07 02:54:09;;;;;;;8.23;4.13;;;11.50;99.90;;;;;;5032411;28;20033;-68
2022/11/07 02:56:35;;;;;;;11.10;3.95;;;11.40;99.90;;;;;;5032290;28;20506;-67
2022/11/07 02:59:00;;;;;;;11.32;4.30;;;11.50;99.90;;;;;;5029265;28;20037;-68
2022/11/07 03:01:26;;;;;;;7.63;4.25;;;11.50;99.90;;;;;;5031872;28;20036;-68
2022/11/07 03:03:52;;;;;;;13.40;3.72;;;11.50;99.90;;;;;;5038099;28;20029;-68
2022/11/07 03:06:23;;;;;;;8.85;3.80;;;11.40;99.90;;;;;;5033634;28;20030;-68
2022/11/07 03:08:49;;;;;;;14.95;4.65;;;11.40;99.90;;;;;;5033674;28;20095;-68
2022/11/07 03:11:19;;;;;;;10.57;3.95;;;11.40;99.90;;;;;;5031785;28;20095;-68
2022/11/07 03:13:46;;;;;;;8.10;3.88;;;11.50;99.90;;;;;;5034067;28;20033;-68
2022/11/07 03:16:13;;;;;;;7.63;3.78;;;11.40;99.90;;;;;;5033426;28;20080;-68
2022/11/07 03:18:39;;;;;;;9.38;3.90;;;11.40;99.90;;;;;;5032494;28;20059;-68
2022/11/07 03:21:05;;;;;;;11.35;3.90;;;11.40;99.90;;;;;;5032843;28;20084;-68
2022/11/07 03:23:33;;;;;;;12.32;4.10;;;11.40;99.90;;;;;;5014577;28;20038;-67
2022/11/07 03:25:58;;;;;;;10.10;3.63;;;11.30;99.90;;;;;;5032121;28;20045;-67
2022/11/07 03:28:24;;;;;;;11.90;4.03;;;11.30;99.90;;;;;;5030810;28;20092;-68
2022/11/07 03:30:50;;;;;;;12.82;3.85;;;11.30;99.90;;;;;;5030837;28;20061;-67
2022/11/07 03:33:16;;;;;;;8.65;4.00;;;11.30;99.90;;;;;;5033105;28;20347;-68
2022/11/07 03:35:42;;;;;;;10.57;3.85;;;11.40;99.90;;;;;;5032389;28;20029;-67
2022/11/07 03:38:08;;;;;;;9.68;3.65;;;11.30;99.90;;;;;;5032285;28;20038;-68
2022/11/07 03:40:34;;;;;;;10.43;3.95;;;11.30;99.90;;;;;;5031267;28;20052;-67
2022/11/07 03:43:00;;;;;;;8.27;3.30;;;11.30;99.90;;;;;;5031020;28;20091;-67
2022/11/07 03:45:25;;;;;;;10.32;3.85;;;11.30;99.90;;;;;;5032069;28;20041;-68
2022/11/07 03:47:51;;;;;;;10.23;3.65;;;11.30;99.90;;;;;;5030964;28;20801;-68
2022/11/07 03:50:20;;;;;;;8.65;3.25;;;11.30;99.90;;;;;;5031739;28;20052;-68
2022/11/07 03:52:46;;;;;;;11.05;3.47;;;11.20;99.90;;;;;;5032957;28;20037;-67
2022/11/07 03:55:17;;;;;;;8.55;3.47;;;11.30;99.90;;;;;;5031826;28;20037;-68
2022/11/07 03:57:43;;;;;;;13.65;4.05;;;11.30;99.90;;;;;;5031978;28;20044;-67
2022/11/07 04:00:09;;;;;;;10.75;3.67;;;11.30;99.90;;;;;;5030218;28;20040;-68
2022/11/07 04:02:35;;;;;;;9.75;3.83;;;11.30;99.90;;;;;;5032721;28;20167;-68
2022/11/07 04:05:01;;;;;;;10.57;3.58;;;11.30;99.90;;;;;;5031611;28;20136;-68
2022/11/07 04:07:26;;;;;;;13.18;3.55;;;11.30;99.90;;;;;;5032468;28;20187;-68
2022/11/07 04:09:52;;;;;;;8.35;3.42;;;11.30;99.90;;;;;;5031062;28;20033;-68
2022/11/07 04:17:46;;;;;;;9.52;3.92;;;11.40;99.90;;;;;;5031500;28;20053;-68
2022/11/07 04:20:12;;;;;;;9.45;3.60;;;11.40;99.90;;;;;;5031306;28;20041;-68
2022/11/07 04:22:37;;;;;;;9.70;3.90;;;11.40;99.90;;;;;;5031991;28;20419;-68
2022/11/07 04:25:04;;;;;;;7.03;3.63;;;11.40;99.90;;;;;;5031604;28;20486;-68
2022/11/07 04:27:41;;;;;;;10.25;3.78;;;11.40;99.90;;;;;;5030892;28;20029;-68
2022/11/07 04:30:20;;;;;;;9.63;3.90;;;11.40;99.90;;;;;;5029147;28;20048;-68
2022/11/07 04:32:54;;;;;;;10.02;3.33;;;11.40;99.90;;;;;;5032829;28;20034;-68
2022/11/07 04:35:21;;;;;;;13.82;3.60;;;11.40;99.90;;;;;;5030463;28;20442;-68
2022/11/07 04:37:47;;;;;;;9.52;3.55;;;11.40;99.90;;;;;;5031758;28;20033;-68
2022/11/07 04:40:14;;;;;;;10.35;3.60;;;11.40;99.90;;;;;;5029928;28;20128;-68
2022/11/07 04:42:40;;;;;;;10.93;4.05;;;11.40;99.90;;;;;;5032029;28;20041;-68
2022/11/07 04:45:07;;;;;;;11.50;3.88;;;11.40;99.90;;;;;;5031257;28;20034;-68
2022/11/07 04:47:33;;;;;;;12.25;4.38;;;11.40;99.90;;;;;;5027957;28;20034;-68
2022/11/07 04:49:58;;;;;;;7.97;3.95;;;11.40;99.90;;;;;;5011688;28;20048;-68
2022/11/07 04:52:24;;;;;;;12.43;4.45;;;11.30;99.90;;;;;;5010222;28;20049;-68
2022/11/07 04:54:49;;;;;;;8.98;4.22;;;11.40;99.90;;;;;;5011441;28;20476;-68
2022/11/07 04:57:15;;;;;;;13.35;4.40;;;11.30;99.90;;;;;;5012234;28;20034;-67
2022/11/07 04:59:41;;;;;;;9.63;4.40;;;11.30;99.90;;;;;;5009989;28;20121;-67
2022/11/07 05:02:11;;;;;;;12.23;4.03;;;11.30;99.90;;;;;;5025377;28;20041;-68
2022/11/07 05:04:37;;;;;;;12.38;4.10;;;11.30;99.90;;;;;;5004038;28;20447;-68
2022/11/07 05:07:04;;;;;;;9.80;3.92;;;11.30;99.90;;;;;;5018988;28;20037;-68
2022/11/07 05:09:29;;;;;;;10.35;4.18;;;11.20;99.90;;;;;;5010731;28;20033;-68
2022/11/07 05:11:55;;;;;;;8.98;3.97;;;11.30;99.90;;;;;;5009961;28;20037;-68
2022/11/07 05:14:21;;;;;;;11.82;4.25;;;11.20;99.90;;;;;;5010355;28;20042;-68
2022/11/07 05:16:49;;;;;;;9.13;4.85;;;11.30;99.90;;;;;;5011905;28;20061;-68
2022/11/07 05:19:16;;;;;;;8.45;4.30;;;11.30;99.90;;;;;;5010866;28;20046;-68
2022/11/07 05:21:44;;;;;;;12.85;4.55;;;11.30;99.90;;;;;;5015807;28;20120;-68
2022/11/07 05:24:11;;;;;;;11.93;4.10;;;11.30;99.90;;;;;;5029476;28;20446;-68
2022/11/07 05:26:37;;;;;;;10.48;4.43;;;11.30;99.90;;;;;;5010910;28;20515;-68
2022/11/07 05:29:04;;;;;;;9.70;4.30;;;11.30;99.90;;;;;;5011460;28;20048;-68
2022/11/07 05:31:30;;;;;;;8.95;4.72;;;11.30;99.90;;;;;;5011867;28;20038;-68
2022/11/07 05:33:55;;;;;;;11.95;4.72;;;11.30;99.90;;;;;;5012093;28;20045;-68
2022/11/07 05:36:22;;;;;;;8.48;4.10;;;11.30;99.90;;;;;;5013887;28;20064;-68
2022/11/07 05:38:50;;;;;;;10.15;3.88;;;11.30;99.90;;;;;;5010311;28;20041;-68
2022/11/07 05:41:19;;;;;;;9.32;4.07;;;11.20;99.90;;;;;;5008518;28;20091;-68
2022/11/07 05:43:44;;;;;;;8.60;3.95;;;11.20;99.90;;;;;;5011743;28;20100;-68
2022/11/07 05:46:10;;;;;;;11.32;4.03;;;11.20;99.90;;;;;;5008553;28;20037;-67
2022/11/07 05:48:36;;;;;;;13.00;4.75;;;11.20;99.90;;;;;;5013347;28;20076;-68
2022/11/07 05:51:04;;;;;;;4.93;3.00;;;11.20;99.90;;;;;;5029545;28;20073;-68
2022/11/07 05:53:29;;;;;;;9.98;3.92;;;11.30;99.90;;;;;;5030917;28;20037;-68
2022/11/07 05:55:55;;;;;;;8.40;4.00;;;11.30;99.90;;;;;;5030344;28;20090;-68
2022/11/07 05:58:21;;;;;;;15.15;4.20;;;11.30;99.90;;;;;;5030023;28;20449;-68
2022/11/07 06:00:47;;;;;;;10.50;4.13;;;11.30;99.90;;;;;;5029682;28;20494;-68
2022/11/07 06:03:13;;;;;;;10.25;3.80;;;11.30;99.90;;;;;;5029267;28;20076;-68
2022/11/07 06:05:41;;;;;;;12.05;4.78;;;11.30;99.90;;;;;;5026941;28;20403;-68
2022/11/07 06:08:09;;;;;;;9.75;4.15;;;11.30;99.90;;;;;;5027799;28;20047;-68
2022/11/07 06:10:40;;;;;;;11.82;4.65;;;11.30;99.90;;;;;;5028659;28;20065;-68
2022/11/07 06:13:09;;;;;;;11.48;4.78;;;11.40;99.90;;;;;;5030897;28;20068;-68
2022/11/07 06:15:36;;;;;;;10.27;4.68;;;11.40;99.90;;;;;;5020667;28;20198;-68
2022/11/07 06:18:03;;;;;;;16.40;4.55;;;11.30;99.90;;;;;;5027141;28;20398;-68
2022/11/07 06:20:29;;;;;;;11.15;4.63;;;11.40;99.90;;;;;;5025449;28;20407;-68
2022/11/07 06:22:58;;;;;;;14.32;4.53;;;11.40;99.90;;;;;;5030582;28;20025;-68
2022/11/07 06:25:25;;;;;;;11.90;4.70;;;11.40;99.90;;;;;;5026819;28;20045;-68
2022/11/07 06:27:51;;;;;;;12.23;5.03;;;11.40;99.90;;;;;;5030669;28;20483;-68
2022/11/07 06:30:16;;;;;;;13.90;4.80;;;11.50;99.90;;;;;;5030281;28;20047;-68
2022/11/07 06:32:44;;;;;;;6.80;4.18;;;11.40;99.90;;;;;;5030058;28;20033;-68
2022/11/07 06:35:11;;;;;;;11.50;4.32;;;11.40;99.90;;;;;;5024993;28;20042;-68
2022/11/07 06:37:37;;;;;;;13.75;5.18;;;11.40;99.90;;;;;;5031080;28;20038;-68
2022/11/07 06:40:03;;;;;;;15.35;5.63;;;11.40;99.90;;;;;;5025688;28;20517;-68
2022/11/07 06:42:29;;;;;;;9.80;5.03;;;11.40;99.90;;;;;;5029215;28;20037;-68
2022/11/07 06:44:55;;;;;;;13.18;5.45;;;11.40;99.90;;;;;;5033289;28;20540;-68
2022/11/07 06:47:20;;;;;;;20.50;5.88;;;11.40;99.90;;;;;;5030124;28;20040;-68
2022/11/07 06:49:46;;;;;;;13.43;5.40;;;11.50;99.90;;;;;;5028510;28;20042;-68
2022/11/07 06:52:12;;;;;;;14.00;4.93;;;11.50;99.90;;;;;;5027518;28;20115;-68
2022/11/07 06:54:37;;;;;;;15.50;4.85;;;11.50;99.90;;;;;;5029459;28;20033;-68
2022/11/07 06:57:03;;;;;;;19.50;5.28;;;11.50;99.90;;;;;;5027948;28;20076;-68
2022/11/07 06:59:28;;;;;;;12.52;4.90;;;11.50;99.90;;;;;;5028320;28;20034;-68
2022/11/07 07:01:54;;;;;;;19.15;5.47;;;11.50;99.90;;;;;;5027422;28;20034;-68
2022/11/07 07:04:19;;;;;;;15.95;4.90;;;11.50;99.90;;;;;;5028082;28;20088;-68
2022/11/07 07:06:45;;;;;;;11.15;4.18;;;11.50;99.90;;;;;;5032503;28;20490;-68
2022/11/07 07:09:11;;;;;;;16.13;5.28;;;11.50;99.90;;;;;;5028857;28;20045;-68
2022/11/07 07:11:37;;;;;;;13.98;4.30;;;11.60;99.90;;;;;;5032815;28;20052;-68
2022/11/07 07:14:04;;;;;;;14.70;4.97;;;11.50;99.90;;;;;;5030300;28;20037;-68
2022/11/07 07:16:30;;;;;;;13.20;4.07;;;11.60;99.90;;;;;;5030937;28;20045;-69
2022/11/07 07:18:55;;;;;;;14.85;4.40;;;11.60;99.90;;;;;;5028014;28;20088;-68
2022/11/07 07:21:21;;;;;;;12.73;4.30;;;11.60;99.90;;;;;;5028993;28;20085;-69
2022/11/07 07:23:47;;;;;;;12.30;4.22;;;11.50;99.90;;;;;;5030242;28;20698;-68
2022/11/07 07:26:14;;;;;;;10.02;4.40;;;11.50;99.90;;;;;;5033619;28;20469;-67
2022/11/07 07:28:40;;;;;;;15.95;4.28;;;11.50;99.90;;;;;;5032306;28;20042;-68
2022/11/07 07:31:14;;;;;;;12.77;4.50;;;11.60;99.90;;;;;;5033384;28;20037;-67
2022/11/07 07:33:45;;;;;;;12.38;4.47;;;11.60;99.90;;;;;;5031716;28;20398;-67
2022/11/07 07:36:12;;;;;;;11.27;3.85;;;11.60;99.90;;;;;;5030714;28;20526;-67
2022/11/07 07:38:38;;;;;;;11.82;4.68;;;11.60;99.90;;;;;;5031299;28;20406;-68
2022/11/07 07:41:04;;;;;;;14.60;4.43;;;11.60;99.90;;;;;;5029624;28;20029;-68
2022/11/07 07:43:30;;;;;;;13.45;4.38;;;11.70;99.90;;;;;;5030417;28;20033;-68
2022/11/07 07:46:00;;;;;;;10.98;3.90;;;11.70;99.90;;;;;;5031380;28;20044;-68
2022/11/07 07:48:26;;;;;;;14.63;4.88;;;11.80;99.90;;;;;;5033287;28;20044;-68
2022/11/07 07:50:52;;;;;;;9.80;3.83;;;11.80;99.90;;;;;;5031610;28;20250;-68
2022/11/07 07:53:17;;;;;;;16.02;4.82;;;11.80;99.90;;;;;;5031558;28;20041;-68
2022/11/07 07:55:43;;;;;;;12.23;4.93;;;11.80;99.90;;;;;;5029471;28;20442;-68
2022/11/07 07:58:10;;;;;;;12.40;4.47;;;11.80;99.90;;;;;;5030182;28;20116;-68
2022/11/07 08:00:36;;;;;;;8.45;3.38;;;11.80;99.90;;;;;;5028390;28;20038;-69
2022/11/07 08:03:04;;;;;;;10.55;4.13;;;11.80;99.90;;;;;;5026432;28;20029;-67
2022/11/07 08:05:30;;;;;;;11.82;4.20;;;11.80;99.90;;;;;;5030650;28;20491;-67
2022/11/07 08:07:56;;;;;;;11.05;4.15;;;11.80;99.90;;;;;;5030811;28;20035;-67
2022/11/07 08:10:21;;;;;;;12.07;3.90;;;11.90;99.90;;;;;;5029158;28;20069;-68
2022/11/07 08:12:49;;;;;;;15.18;4.63;;;11.90;99.90;;;;;;5027952;28;20033;-67
2022/11/07 08:15:16;;;;;;;11.00;4.00;;;11.90;99.90;;;;;;5029237;28;20045;-68
2022/11/07 08:17:42;;;;;;;12.35;4.25;;;11.90;99.90;;;;;;5028568;28;20049;-67
2022/11/07 08:20:09;;;;;;;15.63;4.30;;;11.90;99.90;;;;;;5026026;28;20040;-68
2022/11/07 08:22:36;;;;;;;13.88;4.10;;;11.90;99.90;;;;;;5026875;28;20499;-68
2022/11/07 08:25:02;;;;;;;11.15;3.97;;;12.00;99.90;;;;;;5026797;28;20495;-68
2022/11/07 08:27:28;;;;;;;20.30;4.65;;;12.00;99.90;;;;;;5031651;28;20035;-68
2022/11/07 08:29:53;;;;;;;17.63;4.10;;;12.00;99.90;;;;;;5024869;28;20410;-68
2022/11/07 08:32:19;;;;;;;13.85;4.65;;;12.00;99.90;;;;;;5030921;28;20128;-69
2022/11/07 08:34:45;;;;;;;16.70;4.25;;;12.10;99.90;;;;;;5028904;28;20048;-69
2022/11/07 08:37:10;;;;;;;8.10;3.72;;;12.10;99.90;;;;;;5030006;28;20033;-68
2022/11/07 08:39:36;;;;;;;15.18;4.38;;;12.10;99.90;;;;;;5029477;28;20053;-69
2022/11/07 08:42:02;;;;;;;13.75;4.18;;;12.20;99.90;;;;;;5027983;28;20036;-69
2022/11/07 08:44:28;;;;;;;12.90;3.63;;;12.20;99.90;;;;;;5030042;28;20029;-69
2022/11/07 08:46:54;;;;;;;14.95;3.83;;;12.20;99.90;;;;;;5031875;28;20030;-69
2022/11/07 08:49:20;;;;;;;15.75;4.03;;;12.20;99.90;;;;;;5011697;28;20038;-69
2022/11/07 08:51:48;;;;;;;12.65;3.95;;;12.20;99.90;;;;;;5016289;28;20041;-69
2022/11/07 08:54:14;;;;;;;19.83;3.88;;;12.30;99.90;;;;;;5015958;28;20053;-69
2022/11/07 08:56:39;;;;;;;14.65;3.60;;;12.30;99.90;;;;;;5006541;28;20034;-68
2022/11/07 08:59:05;;;;;;;18.00;4.13;;;12.30;99.90;;;;;;5010188;28;20057;-69
2022/11/07 09:01:31;;;;;;;13.45;3.90;;;12.20;99.90;;;;;;5002949;28;20079;-69
2022/11/07 09:03:57;;;;;;;12.43;3.60;;;12.30;99.90;;;;;;4992679;28;20395;-69
2022/11/07 09:06:23;;;;;;;9.75;3.40;;;12.30;99.90;;;;;;5009508;28;20046;-69
2022/11/07 09:08:48;;;;;;;14.32;4.03;;;12.30;99.90;;;;;;5006347;28;20462;-69
2022/11/07 09:11:17;;;;;;;15.40;3.92;;;12.30;99.90;;;;;;5004800;28;20045;-69
2022/11/07 09:13:43;;;;;;;15.50;4.07;;;12.30;99.90;;;;;;5003007;28;20044;-69
2022/11/07 09:16:09;;;;;;;13.30;3.60;;;12.30;99.90;;;;;;5008857;28;20038;-69
2022/11/07 09:18:35;;;;;;;10.52;3.75;;;12.40;99.90;;;;;;4992189;28;20129;-69
2022/11/07 09:21:00;;;;;;;14.82;3.17;;;12.40;99.90;;;;;;5010399;28;20478;-69
2022/11/07 09:23:26;;;;;;;10.38;3.83;;;12.40;99.90;;;;;;5012105;28;20106;-69
2022/11/07 09:25:52;;;;;;;12.65;3.58;;;12.50;99.90;;;;;;5007908;28;20058;-68
2022/11/07 09:28:17;;;;;;;11.55;2.90;;;12.50;99.90;;;;;;5008985;28;20463;-69
2022/11/07 09:30:43;;;;;;;13.25;3.42;;;12.50;99.90;;;;;;5011678;28;20038;-69
2022/11/07 09:33:09;;;;;;;16.55;3.58;;;12.60;99.90;;;;;;5010415;28;20399;-68
2022/11/07 09:35:34;;;;;;;13.68;3.72;;;12.60;99.90;;;;;;5005232;28;20046;-69
2022/11/07 09:38:00;;;;;;;10.48;3.35;;;12.70;99.90;;;;;;5011695;28;20034;-69
2022/11/07 09:40:54;;;;;;;11.55;3.95;;;12.70;99.90;;;;;;5012330;28;20064;-69
2022/11/07 09:43:41;;;;;;;7.88;3.47;;;12.80;99.90;;;;;;5011286;28;20104;-69
2022/11/07 09:46:26;;;;;;;10.55;3.83;;;12.80;99.90;;;;;;5005169;28;20492;-69
2022/11/07 09:49:19;;;;;;;17.02;3.55;;;12.90;99.90;;;;;;5003426;28;20087;-69
2022/11/07 09:51:51;;;;;;;12.73;4.15;;;12.90;99.90;;;;;;5004953;28;20054;-68
2022/11/07 09:54:21;;;;;;;11.80;3.42;;;12.90;99.90;;;;;;5011704;28;20057;-68
2022/11/07 09:56:47;;;;;;;10.88;3.95;;;12.90;99.90;;;;;;5002694;28;20045;-69
2022/11/07 09:59:36;;;;;;;12.27;3.53;;;12.90;99.90;;;;;;5011316;28;20383;-69
2022/11/07 10:02:10;;;;;;;10.30;3.70;;;13.00;99.90;;;;;;5011358;28;20038;-68
2022/11/07 10:04:36;;;;;;;12.43;3.80;;;12.90;99.90;;;;;;5011960;28;20034;-69
2022/11/07 10:07:16;;;;;;;14.68;4.22;;;12.90;99.90;;;;;;5002211;28;20040;-68
2022/11/07 10:10:00;;;;;;;10.38;3.38;;;12.90;99.90;;;;;;4985979;28;20057;-69
2022/11/07 10:13:03;;;;;;;10.82;3.85;;;12.90;99.90;;;;;;5011228;28;20052;-68
2022/11/07 10:15:39;;;;;;;11.38;3.80;;;12.90;99.90;;;;;;5009408;28;20045;-68
2022/11/07 10:18:11;;;;;;;9.45;3.50;;;12.90;99.90;;;;;;5006115;28;20046;-68
2022/11/07 10:20:55;;;;;;;9.60;3.42;;;12.90;99.90;;;;;;5009047;28;20518;-68
2022/11/07 10:23:37;;;;;;;15.43;3.30;;;12.90;99.90;;;;;;5011228;28;20034;-68
2022/11/07 10:26:10;;;;;;;13.95;3.67;;;12.90;99.90;;;;;;5008033;28;20030;-67
2022/11/07 10:28:57;;;;;;;8.60;3.30;;;13.00;99.90;;;;;;5010778;28;20049;-68
2022/11/07 10:31:26;;;;;;;14.38;3.63;;;13.10;99.90;;;;;;5011259;28;20034;-68
2022/11/07 10:33:58;;;;;;;12.50;3.63;;;13.00;99.90;;;;;;5006630;28;20029;-68
2022/11/07 10:36:31;;;;;;;7.95;3.45;;;13.10;99.90;;;;;;5001575;28;20060;-68
2022/11/07 10:38:57;;;;;;;11.55;3.70;;;13.20;99.90;;;;;;4995329;28;20046;-68
2022/11/07 10:41:25;;;;;;;9.77;3.47;;;13.30;99.90;;;;;;5014359;28;20042;-68
2022/11/07 10:43:59;;;;;;;8.60;3.63;;;13.40;99.90;;;;;;5012604;28;20038;-68
2022/11/07 10:46:35;;;;;;;11.15;3.13;;;13.40;99.90;;;;;;5016303;28;20104;-68
2022/11/07 10:49:01;;;;;;;11.90;3.42;;;13.50;99.90;;;;;;5035039;28;20037;-68
2022/11/07 10:51:39;;;;;;;13.20;2.92;;;13.40;99.90;;;;;;5033619;28;20033;-68
2022/11/07 10:54:06;;;;;;;12.35;3.75;;;13.40;99.90;;;;;;5032362;28;20065;-68
2022/11/07 10:56:46;;;;;;;12.38;2.90;;;13.50;99.90;;;;;;5032605;28;20459;-68
2022/11/07 10:59:20;;;;;;;9.95;3.30;;;13.50;99.90;;;;;;5033656;28;20081;-68
2022/11/07 11:01:51;;;;;;;12.20;3.72;;;13.50;99.90;;;;;;5034608;28;20319;-68
2022/11/07 11:04:20;;;;;;;;;;;13.60;99.90;;;;;;5033048;28;20040;-68
2022/11/07 11:06:56;;;;;;;10.68;2.90;;;13.60;99.90;;;;;;5030806;28;19923;-68
2022/11/07 11:09:22;;;;;;;11.23;3.33;;;13.70;99.90;;;;;;5032236;28;20517;-68
2022/11/07 11:11:50;;;;;;;10.70;3.90;;;13.70;99.90;;;;;;5034207;28;20037;-68
2022/11/07 11:14:20;;;;;;;9.38;3.22;;;13.90;99.90;;;;;;5034560;28;20395;-68
2022/11/07 11:16:57;;;;;;;12.25;3.40;;;13.90;99.90;;;;;;5029793;28;20048;-68
2022/11/07 11:19:32;;;;;;;10.23;3.90;;;13.90;99.90;;;;;;5029576;28;20038;-68
2022/11/07 11:21:59;;;;;;;14.45;3.60;;;13.90;99.90;;;;;;5031671;28;20045;-68
2022/11/07 11:24:30;;;;;;;12.65;3.72;;;13.90;99.90;;;;;;5033646;28;20557;-68
2022/11/07 11:27:13;;;;;;;14.18;3.97;;;13.90;99.90;;;;;;5031310;28;20044;-68
2022/11/07 11:29:51;;;;;;;11.65;3.67;;;13.90;99.90;;;;;;5030052;28;20038;-68
2022/11/07 11:32:29;;;;;;;10.32;3.70;;;13.90;99.90;;;;;;5032637;28;20044;-68
2022/11/07 11:35:10;;;;;;;15.68;4.22;;;13.90;99.90;;;;;;5034188;28;20048;-68
2022/11/07 11:37:41;;;;;;;11.57;4.07;;;13.90;99.90;;;;;;5032178;28;20442;-68
2022/11/07 11:40:17;;;;;;;7.43;3.30;;;13.90;99.90;;;;;;5031939;28;20041;-68
2022/11/07 11:42:59;;;;;;;10.55;3.70;;;14.00;99.90;;;;;;5033219;28;20037;-68
2022/11/07 11:46:02;;;;;;;9.75;3.25;;;14.00;99.90;;;;;;5032047;28;20049;-68
2022/11/07 11:48:45;;;;;;;9.35;3.67;;;14.00;99.90;;;;;;5032756;28;20467;-69
2022/11/07 11:51:15;;;;;;;8.63;3.42;;;14.00;99.90;;;;;;5029582;28;20046;-68
2022/11/07 11:53:40;;;;;;;11.13;3.90;;;14.00;99.90;;;;;;5033447;28;20022;-68
2022/11/07 11:56:06;;;;;;;9.75;3.90;;;14.00;99.90;;;;;;5030988;28;20497;-68
2022/11/07 11:58:37;;;;;;;9.43;4.07;;;14.00;99.90;;;;;;5032088;28;20080;-68
2022/11/07 12:01:17;;;;;;;9.98;3.40;;;14.00;99.90;;;;;;5028352;28;20045;-68
2022/11/07 12:04:01;;;;;;;12.50;4.30;;;14.00;99.90;;;;;;5031254;28;20034;-68
2022/11/07 12:06:51;;;;;;;12.38;3.85;;;14.00;99.90;;;;;;5032018;28;20110;-68
2022/11/07 12:09:42;;;;;;;12.75;3.55;;;14.00;99.90;;;;;;5031814;28;20046;-68
2022/11/07 12:12:25;;;;;;;16.60;4.20;;;14.00;99.90;;;;;;5003737;28;20042;-69
2022/11/07 12:14:56;;;;;;;9.93;3.50;;;14.00;99.90;;;;;;5028297;28;20041;-69
2022/11/07 12:17:38;;;;;;;10.65;3.60;;;14.10;99.90;;;;;;5028421;28;20081;-69
2022/11/07 12:20:21;;;;;;;12.50;3.50;;;14.00;99.90;;;;;;5032781;28;20052;-69
2022/11/07 12:22:51;;;;;;;11.23;3.65;;;14.10;99.90;;;;;;5032963;28;20132;-68
2022/11/07 12:25:26;;;;;;;8.98;3.95;;;14.10;99.90;;;;;;5031194;28;20108;-69
2022/11/07 12:28:19;;;;;;;11.68;3.83;;;14.10;99.90;;;;;;5029105;28;20065;-68
2022/11/07 12:31:13;;;;;;;11.10;3.75;;;14.10;99.90;;;;;;5032578;28;20490;-68
2022/11/07 12:33:44;;;;;;;15.80;4.18;;;14.10;99.90;;;;;;5031727;28;20056;-68
2022/11/07 12:36:17;;;;;;;;;;;14.20;99.90;;;;;;5030268;28;20041;-68
2022/11/07 12:39:08;;;;;;;9.85;3.25;;;14.20;99.90;;;;;;5030341;28;20015;-68
2022/11/07 12:41:55;;;;;;;9.75;3.90;;;14.20;99.90;;;;;;5033688;28;20044;-68
2022/11/07 12:44:32;;;;;;;11.60;3.38;;;14.30;99.90;;;;;;5031258;28;20041;-68
2022/11/07 12:47:03;;;;;;;11.68;3.80;;;14.40;99.90;;;;;;5029616;28;20037;-68
2022/11/07 12:49:50;;;;;;;10.48;3.47;;;14.40;99.90;;;;;;5031109;28;20044;-68
2022/11/07 12:52:22;;;;;;;10.27;3.47;;;14.50;99.90;;;;;;5032695;28;20056;-68
2022/11/07 12:55:01;;;;;;;8.48;3.40;;;14.50;99.90;;;;;;5028908;28;20045;-68
2022/11/07 12:57:31;;;;;;;10.00;3.78;;;14.50;99.90;;;;;;5029608;28;20033;-69